LIPY/AOI METAR and TAF weather

Enter ICAO airport designator
Station Type Date Time Source
LIPY METAR 2019/06/18 04:01 UTC NOAA

LIPY 180401Z 17003KT CAVOK 19/17 Q1014


Station Type Date Time Source
LIPY Decoded METAR 2019/06/18 04:01 UTC NOAA

Falconara, Italy (LIPY) 43-37N 013-22E 10M
Jun 18, 2019 - 12:01 AM EDT / 2019.06.18 0401 UTC
Wind: from the S (170 degrees) at 3 MPH (3 KT):0
Visibility: greater than 7 mile(s):0
Temperature: 66 F (19 C)
Dew Point: 62 F (17 C)
Relative Humidity: 88%
Pressure (altimeter): 29.94 in. Hg (1014 hPa)
ob: LIPY 180401Z 17003KT CAVOK 19/17 Q1014
cycle: 4

Station Type Date Time Source
LIPY TAF 2019/06/17 18:21 UTC NOAA

TAF LIPY 171700Z 1718/1818 VRB05KT CAVOK
BECMG 1808/1810 02010KT

Example: see airport list